createdAt,value
2023-05-05T00:02:13.550Z,16.22
2023-05-05T00:04:40.035Z,16.14
2023-05-05T00:07:06.583Z,16.27
2023-05-05T00:09:33.101Z,16.17
2023-05-05T00:11:59.555Z,16.16
2023-05-05T00:14:26.046Z,15.98
2023-05-05T00:16:52.590Z,15.66
2023-05-05T00:19:19.231Z,15.40
2023-05-05T00:21:45.935Z,15.51
2023-05-05T00:24:12.379Z,15.56
2023-05-05T00:26:38.823Z,15.56
2023-05-05T00:29:05.496Z,15.92
2023-05-05T00:31:32.213Z,15.89
2023-05-05T00:33:58.948Z,15.44
2023-05-05T00:36:25.522Z,15.39
2023-05-05T00:38:52.004Z,15.23
2023-05-05T00:41:18.413Z,15.36
2023-05-05T00:43:44.912Z,15.04
2023-05-05T00:46:25.772Z,14.82
2023-05-05T00:48:52.571Z,14.70
2023-05-05T00:51:20.446Z,14.51
2023-05-05T00:53:48.226Z,14.91
2023-05-05T00:56:16.909Z,15.31
2023-05-05T00:58:43.950Z,14.92
2023-05-05T01:01:11.716Z,14.70
2023-05-05T01:03:39.883Z,14.41
2023-05-05T01:06:38.993Z,14.55
2023-05-05T01:09:29.870Z,14.69
2023-05-05T01:12:14.975Z,14.73
2023-05-05T01:14:47.159Z,14.33
2023-05-05T01:17:18.977Z,13.99
2023-05-05T01:19:58.828Z,13.75
2023-05-05T01:22:31.764Z,13.92
2023-05-05T01:25:30.540Z,13.91
2023-05-05T01:28:06.148Z,13.68
2023-05-05T01:31:08.718Z,13.47
2023-05-05T01:33:42.132Z,13.39
2023-05-05T01:36:14.834Z,13.42
2023-05-05T01:38:45.008Z,13.40
2023-05-05T01:41:26.437Z,13.54
2023-05-05T01:43:56.952Z,13.54
2023-05-05T01:46:24.767Z,13.44
2023-05-05T01:48:52.655Z,13.43
2023-05-05T01:51:20.237Z,13.53
2023-05-05T01:53:46.699Z,13.31
2023-05-05T01:56:14.338Z,13.08
2023-05-05T01:58:44.969Z,13.28
2023-05-05T02:01:13.391Z,13.33
2023-05-05T02:03:41.426Z,13.14
2023-05-05T02:06:10.239Z,13.10
2023-05-05T02:08:39.203Z,13.07
2023-05-05T02:11:06.987Z,13.02
2023-05-05T02:13:33.715Z,13.15
2023-05-05T02:16:01.344Z,13.02
2023-05-05T02:18:27.986Z,12.90
2023-05-05T02:20:54.534Z,12.71
2023-05-05T02:23:20.980Z,12.78
2023-05-05T02:25:51.175Z,12.55
2023-05-05T02:28:22.550Z,12.52
2023-05-05T02:30:57.196Z,12.57
2023-05-05T02:33:26.080Z,12.70
2023-05-05T02:35:56.368Z,12.44
2023-05-05T02:38:27.533Z,12.32
2023-05-05T02:40:57.226Z,12.34
2023-05-05T02:43:25.724Z,12.29
2023-05-05T02:45:52.210Z,12.32
2023-05-05T02:48:18.604Z,12.28
2023-05-05T02:50:45.019Z,12.10
2023-05-05T02:53:11.611Z,12.20
2023-05-05T02:55:51.595Z,12.22
2023-05-05T02:58:29.099Z,12.39
2023-05-05T03:01:11.363Z,12.06
2023-05-05T03:03:49.922Z,11.89
2023-05-05T03:06:19.739Z,11.82
2023-05-05T03:09:18.222Z,12.02
2023-05-05T03:11:57.190Z,12.09
2023-05-05T03:14:27.232Z,12.26
2023-05-05T03:16:55.054Z,12.07
2023-05-05T03:19:23.246Z,11.90
2023-05-05T03:21:50.235Z,11.86
2023-05-05T03:24:18.313Z,11.93
2023-05-05T03:26:46.698Z,11.84
2023-05-05T03:29:13.984Z,11.89
2023-05-05T03:31:40.900Z,11.99
2023-05-05T03:34:08.259Z,12.13
2023-05-05T03:36:35.632Z,12.14
2023-05-05T03:39:02.050Z,12.23
2023-05-05T03:41:28.618Z,12.16
2023-05-05T03:43:55.046Z,12.36
2023-05-05T03:46:21.524Z,12.08
2023-05-05T03:48:48.012Z,12.23
2023-05-05T03:51:14.579Z,12.02
2023-05-05T03:53:41.296Z,11.96
2023-05-05T03:56:07.932Z,12.02
2023-05-05T03:58:34.514Z,11.91
2023-05-05T04:01:00.961Z,11.93
2023-05-05T04:03:27.652Z,12.14
2023-05-05T04:05:54.182Z,11.88
2023-05-05T04:08:20.696Z,12.06
2023-05-05T04:10:47.218Z,11.97
2023-05-05T04:13:13.689Z,11.91
2023-05-05T04:15:47.114Z,11.81
2023-05-05T04:18:13.615Z,11.97
2023-05-05T04:20:40.052Z,11.88
2023-05-05T04:23:06.673Z,11.85
2023-05-05T04:25:33.110Z,12.03
2023-05-05T04:27:59.511Z,12.05
2023-05-05T04:30:25.950Z,11.92
2023-05-05T04:32:52.432Z,11.93
2023-05-05T04:35:18.917Z,12.08
2023-05-05T04:37:45.365Z,12.20
2023-05-05T04:40:12.084Z,12.05
2023-05-05T04:42:38.504Z,12.09
2023-05-05T04:45:05.246Z,12.26
2023-05-05T04:47:31.684Z,12.05
2023-05-05T04:49:58.102Z,12.26
2023-05-05T04:52:24.531Z,12.38
2023-05-05T04:54:51.081Z,12.46
2023-05-05T04:57:17.511Z,12.39
2023-05-05T04:59:43.921Z,12.29
2023-05-05T05:02:10.388Z,12.37
2023-05-05T05:04:36.815Z,12.27
2023-05-05T05:07:03.270Z,12.32
2023-05-05T05:09:29.722Z,12.37
2023-05-05T05:12:00.218Z,12.66
2023-05-05T05:14:26.634Z,12.68
2023-05-05T05:16:53.093Z,12.76
2023-05-05T05:19:19.616Z,12.70
2023-05-05T05:21:46.035Z,12.81
2023-05-05T05:24:12.458Z,12.72
2023-05-05T05:26:39.066Z,12.73
2023-05-05T05:29:05.508Z,12.95
2023-05-05T05:31:33.349Z,13.04
2023-05-05T05:33:59.951Z,13.23
2023-05-05T05:36:26.379Z,13.08
2023-05-05T05:38:52.822Z,13.31
2023-05-05T05:41:19.326Z,13.32
2023-05-05T05:43:45.710Z,13.42
2023-05-05T05:46:12.245Z,13.55
2023-05-05T05:48:38.670Z,13.68
2023-05-05T05:51:05.142Z,13.70
2023-05-05T05:53:31.569Z,13.99
2023-05-05T05:55:57.997Z,14.12
2023-05-05T05:58:24.397Z,13.97
2023-05-05T06:00:50.863Z,14.24
2023-05-05T06:03:17.610Z,14.11
2023-05-05T06:05:45.310Z,14.46
2023-05-05T06:08:11.996Z,14.39
2023-05-05T06:10:38.443Z,14.47
2023-05-05T06:13:04.881Z,15.00
2023-05-05T06:15:31.377Z,15.51
2023-05-05T06:17:57.794Z,16.09
2023-05-05T06:20:24.223Z,16.44
2023-05-05T06:22:50.691Z,16.51
2023-05-05T06:25:17.546Z,16.53
2023-05-05T06:27:43.977Z,16.60
2023-05-05T06:30:10.925Z,15.99
2023-05-05T06:32:37.491Z,15.28
2023-05-05T06:35:04.282Z,16.31
2023-05-05T06:37:30.700Z,17.54
2023-05-05T06:39:57.123Z,16.87
2023-05-05T06:42:23.600Z,16.97
2023-05-05T06:44:50.153Z,16.92
2023-05-05T06:47:16.586Z,17.41
2023-05-05T06:49:43.084Z,16.78
2023-05-05T06:52:09.494Z,16.43
2023-05-05T06:54:35.955Z,16.93
2023-05-05T06:57:02.402Z,17.11
2023-05-05T06:59:28.842Z,16.36
2023-05-05T07:01:56.516Z,17.33
2023-05-05T07:04:23.163Z,16.69
2023-05-05T07:06:49.601Z,19.09
2023-05-05T07:09:17.096Z,18.82
2023-05-05T07:11:44.131Z,17.73
2023-05-05T07:14:10.548Z,17.39
2023-05-05T07:16:37.192Z,19.13
2023-05-05T07:19:03.741Z,19.64
2023-05-05T07:21:30.178Z,19.75
2023-05-05T07:23:56.794Z,19.94
2023-05-05T07:26:23.421Z,19.95
2023-05-05T07:28:49.913Z,20.38
2023-05-05T07:31:16.331Z,20.55
2023-05-05T07:33:42.793Z,19.27
2023-05-05T07:36:09.303Z,18.63
2023-05-05T07:38:35.801Z,20.36
2023-05-05T07:41:02.572Z,19.92
2023-05-05T07:43:29.166Z,18.69
2023-05-05T07:45:55.615Z,17.74
2023-05-05T07:48:22.092Z,17.79
2023-05-05T07:50:48.689Z,18.22
2023-05-05T07:53:15.333Z,18.28
2023-05-05T07:55:42.108Z,19.07
2023-05-05T07:58:08.665Z,18.76
2023-05-05T08:00:35.208Z,18.91
2023-05-05T08:03:01.757Z,19.43
2023-05-05T08:05:28.342Z,20.19
2023-05-05T08:07:54.771Z,19.95
2023-05-05T08:10:21.346Z,19.79
2023-05-05T08:12:48.091Z,19.55
2023-05-05T08:15:14.578Z,19.20
2023-05-05T08:17:45.008Z,18.18
2023-05-05T08:20:11.981Z,18.18
2023-05-05T08:22:38.434Z,18.42
2023-05-05T08:25:05.466Z,18.43
2023-05-05T08:27:32.117Z,19.08
2023-05-05T08:29:58.535Z,17.75
2023-05-05T08:32:25.355Z,18.31
2023-05-05T08:34:52.876Z,18.51
2023-05-05T08:37:19.338Z,18.55
2023-05-05T08:39:45.772Z,18.67
2023-05-05T08:42:17.518Z,18.25
2023-05-05T08:44:48.879Z,18.31
2023-05-05T08:47:15.796Z,17.92
2023-05-05T08:49:46.280Z,18.25
2023-05-05T08:52:18.596Z,18.66
2023-05-05T08:54:57.382Z,18.22
2023-05-05T08:57:43.897Z,17.99
2023-05-05T09:00:12.345Z,17.29
2023-05-05T09:02:39.463Z,17.14
2023-05-05T09:05:07.171Z,17.27
2023-05-05T09:07:34.703Z,17.33
2023-05-05T09:10:04.121Z,17.58
2023-05-05T09:12:31.180Z,17.65
2023-05-05T09:14:59.315Z,17.23
2023-05-05T09:17:26.869Z,16.97
2023-05-05T09:20:01.965Z,16.70
2023-05-05T09:22:39.409Z,16.75
2023-05-05T09:25:08.681Z,16.62
2023-05-05T09:27:43.789Z,16.36
2023-05-05T09:30:12.142Z,15.06
2023-05-05T09:32:54.277Z,14.44
2023-05-05T09:35:22.139Z,14.58
2023-05-05T09:37:48.732Z,14.55
2023-05-05T09:40:18.851Z,14.41
2023-05-05T09:42:45.815Z,14.41
2023-05-05T09:45:18.465Z,14.93
2023-05-05T09:47:49.317Z,14.99
2023-05-05T09:50:16.977Z,15.00
2023-05-05T09:52:53.740Z,15.23
2023-05-05T09:55:20.198Z,15.17
2023-05-05T09:57:46.658Z,15.19
2023-05-05T10:00:13.588Z,15.37
2023-05-05T10:02:40.223Z,14.97
2023-05-05T10:05:11.779Z,14.00
2023-05-05T10:07:39.729Z,14.25
2023-05-05T10:10:10.761Z,14.71
2023-05-05T10:12:38.252Z,15.25
2023-05-05T10:15:06.511Z,14.99
2023-05-05T10:17:36.979Z,14.21
2023-05-05T10:20:04.465Z,14.29
2023-05-05T10:22:35.043Z,14.34
2023-05-05T10:25:13.089Z,13.95
2023-05-05T10:27:52.962Z,14.07
2023-05-05T10:30:32.497Z,13.56
2023-05-05T10:35:54.381Z,13.75
2023-05-05T10:38:24.637Z,14.16
2023-05-05T10:40:52.394Z,14.10
2023-05-05T10:43:18.968Z,13.85
2023-05-05T10:45:46.014Z,13.82
2023-05-05T10:48:31.220Z,14.35
2023-05-05T10:51:08.076Z,14.22
2023-05-05T10:53:58.633Z,13.89
2023-05-05T10:56:32.655Z,14.04
2023-05-05T10:59:00.589Z,14.42
2023-05-05T11:01:35.321Z,14.20
2023-05-05T11:04:22.312Z,14.81
2023-05-05T11:07:13.762Z,15.32
2023-05-05T11:09:58.683Z,15.42
2023-05-05T11:12:25.163Z,14.92
2023-05-05T11:15:27.129Z,14.97
2023-05-05T11:17:57.574Z,14.30
2023-05-05T11:20:36.341Z,14.35
2023-05-05T11:23:02.858Z,14.25
2023-05-05T11:25:35.308Z,14.01
2023-05-05T11:28:13.694Z,14.12
2023-05-05T11:30:55.517Z,14.34
2023-05-05T11:33:30.985Z,13.85
2023-05-05T11:35:58.383Z,13.97
2023-05-05T11:38:46.624Z,14.41
2023-05-05T11:41:19.069Z,14.34
2023-05-05T11:43:45.806Z,14.09
2023-05-05T11:46:16.937Z,13.89
2023-05-05T11:48:47.098Z,13.74
2023-05-05T11:51:15.093Z,13.63
2023-05-05T11:53:42.979Z,13.73
2023-05-05T11:56:11.108Z,13.61
2023-05-05T11:58:38.420Z,13.69
2023-05-05T12:01:08.386Z,13.73
2023-05-05T12:03:36.697Z,13.73
2023-05-05T12:06:04.668Z,14.27
2023-05-05T12:08:40.618Z,14.26
2023-05-05T12:11:09.003Z,14.49
2023-05-05T12:13:35.614Z,13.44
2023-05-05T12:16:12.538Z,12.07
2023-05-05T12:18:39.776Z,11.80
2023-05-05T12:21:19.623Z,11.32
2023-05-05T12:23:46.724Z,11.71
2023-05-05T12:26:25.354Z,12.54
2023-05-05T12:28:51.925Z,12.00
2023-05-05T12:31:18.455Z,12.28
2023-05-05T12:33:45.915Z,11.57
2023-05-05T12:36:12.960Z,11.84
2023-05-05T12:38:39.557Z,11.84
2023-05-05T12:41:06.370Z,11.48
2023-05-05T12:43:34.604Z,11.56
2023-05-05T12:46:05.353Z,11.57
2023-05-05T12:48:32.816Z,11.74
2023-05-05T12:51:17.341Z,12.08
2023-05-05T12:53:45.822Z,12.48
2023-05-05T12:56:32.070Z,13.03
2023-05-05T12:58:59.071Z,12.97
2023-05-05T13:01:25.672Z,13.07
2023-05-05T13:04:09.003Z,12.72
2023-05-05T13:06:36.227Z,12.93
2023-05-05T13:09:02.857Z,13.47
2023-05-05T13:11:29.337Z,12.96
2023-05-05T13:13:56.327Z,12.90
2023-05-05T13:16:22.866Z,13.74
2023-05-05T13:18:50.351Z,13.68
2023-05-05T13:21:16.793Z,13.50
2023-05-05T13:23:43.861Z,12.65
2023-05-05T13:26:11.107Z,13.24
2023-05-05T13:28:37.735Z,13.38
2023-05-05T13:31:04.507Z,13.41
2023-05-05T13:33:33.841Z,12.86
2023-05-05T13:36:01.502Z,12.74
2023-05-05T13:38:27.972Z,12.90
2023-05-05T13:40:54.421Z,13.25
2023-05-05T13:43:20.889Z,13.46
2023-05-05T13:45:47.442Z,13.05
2023-05-05T13:48:13.827Z,13.31
2023-05-05T13:50:40.274Z,13.21
2023-05-05T13:53:06.806Z,13.73
2023-05-05T13:55:33.329Z,13.07
2023-05-05T13:57:59.787Z,13.65
2023-05-05T14:00:26.440Z,13.25
2023-05-05T14:02:52.961Z,13.33
2023-05-05T14:05:19.961Z,13.29
2023-05-05T14:07:47.637Z,13.54
2023-05-05T14:10:14.065Z,13.36
2023-05-05T14:12:40.555Z,13.11
2023-05-05T14:15:07.840Z,13.48
2023-05-05T14:17:34.679Z,13.52
2023-05-05T14:20:01.329Z,13.42
2023-05-05T14:22:27.816Z,13.71
2023-05-05T14:24:54.282Z,13.54
2023-05-05T14:27:20.771Z,13.77
2023-05-05T14:29:47.201Z,13.62
2023-05-05T14:32:13.769Z,13.83
2023-05-05T14:34:40.229Z,13.81
2023-05-05T14:37:06.667Z,14.16
2023-05-05T14:39:33.138Z,14.29
2023-05-05T14:41:59.551Z,14.17
2023-05-05T14:44:26.039Z,14.13
2023-05-05T14:46:52.531Z,14.42
2023-05-05T14:49:18.978Z,14.46
2023-05-05T14:51:45.440Z,14.74
2023-05-05T14:54:20.481Z,15.08
2023-05-05T14:56:53.635Z,15.10
2023-05-05T14:59:20.086Z,15.55
2023-05-05T15:01:46.590Z,15.73
2023-05-05T15:04:12.987Z,15.93
2023-05-05T15:06:39.512Z,15.62
2023-05-05T15:09:05.965Z,15.78
2023-05-05T15:11:32.374Z,14.95
2023-05-05T15:13:58.822Z,15.48
2023-05-05T15:16:25.293Z,15.32
2023-05-05T15:18:51.908Z,15.38
2023-05-05T15:21:18.542Z,15.89
2023-05-05T15:23:45.022Z,16.00
2023-05-05T15:26:11.545Z,15.73
2023-05-05T15:28:38.013Z,16.33
2023-05-05T15:31:04.523Z,16.64
2023-05-05T15:33:30.947Z,17.01
2023-05-05T15:35:57.628Z,16.17
2023-05-05T15:38:24.091Z,16.27
2023-05-05T15:40:50.548Z,17.83
2023-05-05T15:43:16.975Z,17.94
2023-05-05T15:45:43.400Z,18.72
2023-05-05T15:48:09.857Z,17.18
2023-05-05T15:50:36.293Z,18.14
2023-05-05T15:53:02.803Z,18.50
2023-05-05T15:55:29.191Z,17.97
2023-05-05T15:57:55.794Z,17.78
2023-05-05T16:00:22.628Z,17.33
2023-05-05T16:02:49.196Z,17.31
2023-05-05T16:05:15.613Z,16.17
2023-05-05T16:07:42.070Z,15.93
2023-05-05T16:10:09.094Z,16.23
2023-05-05T16:12:35.571Z,15.85
2023-05-05T16:15:02.033Z,16.13
2023-05-05T16:17:28.583Z,16.11
2023-05-05T16:19:55.023Z,15.43
2023-05-05T16:22:21.514Z,15.29
2023-05-05T16:24:47.916Z,15.14
2023-05-05T16:27:14.382Z,15.25
2023-05-05T16:29:40.954Z,15.36
2023-05-05T16:32:07.385Z,15.55
2023-05-05T16:34:33.822Z,15.46
2023-05-05T16:37:00.343Z,15.22
2023-05-05T16:39:26.780Z,15.40
2023-05-05T16:41:53.206Z,15.59
2023-05-05T16:44:19.710Z,15.67
2023-05-05T16:46:46.206Z,15.62
2023-05-05T16:49:12.626Z,15.65
2023-05-05T16:51:39.165Z,15.55
2023-05-05T16:54:05.662Z,15.60
2023-05-05T16:56:32.108Z,15.36
2023-05-05T16:58:58.550Z,15.52
2023-05-05T17:01:25.014Z,15.58
2023-05-05T17:03:51.505Z,15.65
2023-05-05T17:06:17.935Z,15.33
2023-05-05T17:08:44.462Z,15.32
2023-05-05T17:11:11.812Z,15.33
2023-05-05T17:13:38.564Z,15.28
2023-05-05T17:16:05.133Z,15.65
2023-05-05T17:18:31.558Z,15.66
2023-05-05T17:20:57.977Z,15.48
2023-05-05T17:23:24.443Z,15.59
2023-05-05T17:25:50.846Z,15.73
2023-05-05T17:28:17.269Z,15.59
2023-05-05T17:30:43.819Z,15.47
2023-05-05T17:33:10.312Z,15.30
2023-05-05T17:35:37.579Z,15.34
2023-05-05T17:38:04.016Z,15.42
2023-05-05T17:40:30.414Z,15.84
2023-05-05T17:42:56.884Z,15.69
2023-05-05T17:45:23.916Z,15.67
2023-05-05T17:47:50.499Z,15.42
2023-05-05T17:50:17.236Z,15.55
2023-05-05T17:52:43.689Z,15.52
2023-05-05T17:55:10.578Z,15.95
2023-05-05T17:57:37.156Z,15.70
2023-05-05T18:00:07.777Z,15.63
2023-05-05T18:02:35.494Z,15.19
2023-05-05T18:05:03.013Z,15.29
2023-05-05T18:07:29.422Z,15.23
2023-05-05T18:09:55.836Z,15.13
2023-05-05T18:12:22.312Z,15.09
2023-05-05T18:14:48.763Z,15.20
2023-05-05T18:17:15.257Z,15.23
2023-05-05T18:19:41.658Z,15.15
2023-05-05T18:22:08.156Z,15.27
2023-05-05T18:24:34.622Z,15.15
2023-05-05T18:27:01.109Z,15.10
2023-05-05T18:29:27.547Z,14.96
2023-05-05T18:31:54.186Z,15.06
2023-05-05T18:34:20.827Z,14.85
2023-05-05T18:36:48.338Z,14.92
2023-05-05T18:39:14.913Z,14.89
2023-05-05T18:41:41.423Z,14.72
2023-05-05T18:44:07.982Z,14.76
2023-05-05T18:46:34.820Z,14.70
2023-05-05T18:49:01.530Z,14.52
2023-05-05T18:51:27.981Z,14.50
2023-05-05T18:53:54.524Z,14.40
2023-05-05T18:56:20.927Z,14.40
2023-05-05T18:58:47.561Z,14.35
2023-05-05T19:01:14.058Z,14.34
2023-05-05T19:03:40.494Z,14.24
2023-05-05T19:06:07.216Z,14.16
2023-05-05T19:08:33.750Z,14.12
2023-05-05T19:11:00.270Z,13.90
2023-05-05T19:13:26.790Z,14.00
2023-05-05T19:15:54.748Z,13.92
2023-05-05T19:18:21.308Z,13.97
2023-05-05T19:20:47.748Z,13.96
2023-05-05T19:23:14.195Z,14.09
2023-05-05T19:25:40.702Z,13.92
2023-05-05T19:28:07.224Z,14.18
2023-05-05T19:30:33.674Z,14.18
2023-05-05T19:33:00.242Z,14.09
2023-05-05T19:35:26.929Z,13.96
2023-05-05T19:37:53.783Z,13.99
2023-05-05T19:40:20.224Z,13.85
2023-05-05T19:42:46.666Z,13.80
2023-05-05T19:45:13.220Z,13.76
2023-05-05T19:47:39.665Z,13.84
2023-05-05T19:50:06.517Z,13.76
2023-05-05T19:52:33.066Z,13.77
2023-05-05T19:54:59.523Z,13.80
2023-05-05T19:57:26.017Z,13.83
2023-05-05T19:59:52.531Z,13.83
2023-05-05T20:02:18.988Z,13.89
2023-05-05T20:04:45.415Z,13.91
2023-05-05T20:07:11.837Z,13.92
2023-05-05T20:09:38.322Z,13.93
2023-05-05T20:12:05.215Z,13.76
2023-05-05T20:14:31.666Z,13.75
2023-05-05T20:16:58.145Z,13.60
2023-05-05T20:19:24.683Z,13.65
2023-05-05T20:21:51.111Z,13.56
2023-05-05T20:24:17.651Z,13.55
2023-05-05T20:26:44.122Z,13.49
2023-05-05T20:29:10.566Z,13.29
2023-05-05T20:31:37.360Z,13.39
2023-05-05T20:34:03.888Z,13.34
2023-05-05T20:36:30.321Z,13.27
2023-05-05T20:38:56.737Z,13.27
2023-05-05T20:41:23.179Z,13.24
2023-05-05T20:43:49.547Z,13.19
2023-05-05T20:46:16.093Z,13.26
2023-05-05T20:48:43.331Z,13.06
2023-05-05T20:51:09.887Z,13.25
2023-05-05T20:53:36.399Z,13.18
2023-05-05T20:56:05.127Z,13.15
2023-05-05T20:58:32.748Z,13.01
2023-05-05T21:00:59.223Z,13.04
2023-05-05T21:03:25.763Z,13.01
2023-05-05T21:05:52.283Z,13.01
2023-05-05T21:08:18.766Z,12.98
2023-05-05T21:10:45.301Z,12.92
2023-05-05T21:13:11.805Z,12.93
2023-05-05T21:15:38.366Z,12.93
2023-05-05T21:18:04.962Z,12.90
2023-05-05T21:20:31.483Z,12.84
2023-05-05T21:22:57.903Z,12.91
2023-05-05T21:25:25.731Z,12.88
2023-05-05T21:27:52.206Z,12.88
2023-05-05T21:30:18.712Z,12.88
2023-05-05T21:32:45.285Z,12.84
2023-05-05T21:35:11.942Z,12.87
2023-05-05T21:37:39.081Z,12.89
2023-05-05T21:40:07.393Z,12.85
2023-05-05T21:42:33.921Z,12.83
2023-05-05T21:45:00.323Z,12.85
2023-05-05T21:47:27.377Z,12.83
2023-05-05T21:49:53.898Z,12.83
2023-05-05T21:52:20.375Z,12.93
2023-05-05T21:54:46.855Z,12.91
2023-05-05T21:57:13.352Z,12.78
2023-05-05T21:59:39.783Z,12.74
2023-05-05T22:02:06.223Z,12.76
2023-05-05T22:04:32.602Z,12.71
2023-05-05T22:06:59.093Z,12.68
2023-05-05T22:09:25.546Z,12.71
2023-05-05T22:11:52.183Z,12.62
2023-05-05T22:14:18.726Z,12.64
2023-05-05T22:16:45.348Z,12.59
2023-05-05T22:19:11.900Z,12.42
2023-05-05T22:21:38.365Z,12.51
2023-05-05T22:24:05.310Z,12.48
2023-05-05T22:26:32.040Z,12.41
2023-05-05T22:28:58.535Z,12.32
2023-05-05T22:31:25.022Z,12.35
2023-05-05T22:33:51.473Z,12.23
2023-05-05T22:36:17.840Z,12.24
2023-05-05T22:38:44.304Z,12.11
2023-05-05T22:41:10.791Z,12.19
2023-05-05T22:43:37.328Z,12.22
2023-05-05T22:46:03.972Z,12.23
2023-05-05T22:48:30.402Z,12.13
2023-05-05T22:50:56.825Z,12.09
2023-05-05T22:53:23.287Z,12.05
2023-05-05T22:55:49.754Z,12.09
2023-05-05T22:58:16.273Z,12.06
2023-05-05T23:00:42.757Z,12.10
2023-05-05T23:03:09.667Z,12.10
2023-05-05T23:05:36.155Z,12.02
2023-05-05T23:08:02.604Z,11.95
2023-05-05T23:10:29.223Z,11.89
2023-05-05T23:12:55.737Z,11.50
2023-05-05T23:15:22.295Z,11.96
2023-05-05T23:17:48.724Z,11.93
2023-05-05T23:20:15.304Z,11.85
2023-05-05T23:22:41.849Z,11.76
2023-05-05T23:25:09.027Z,11.86
2023-05-05T23:27:35.658Z,11.85
2023-05-05T23:30:02.273Z,11.85
2023-05-05T23:32:28.800Z,11.73
2023-05-05T23:34:55.383Z,11.64
2023-05-05T23:37:21.848Z,11.67
2023-05-05T23:39:48.469Z,11.67
2023-05-05T23:42:14.932Z,11.68
2023-05-05T23:44:41.370Z,11.64
2023-05-05T23:47:07.783Z,11.65
2023-05-05T23:49:34.518Z,11.74
2023-05-05T23:52:00.973Z,11.73
2023-05-05T23:54:27.430Z,11.66
2023-05-05T23:56:53.979Z,11.60
2023-05-05T23:59:20.466Z,11.56
